createdAt,value
2022-09-20T00:48:57.545Z,9.303182
2022-09-20T01:13:06.257Z,9.303387
2022-09-20T02:08:15.316Z,9.303015
2022-09-20T02:09:21.679Z,9.303231
2022-09-20T02:10:21.201Z,9.303371
2022-09-20T03:11:50.752Z,9.302980
2022-09-20T03:12:50.723Z,9.303026
2022-09-20T04:11:40.531Z,9.303214
2022-09-20T04:12:40.453Z,9.303680
2022-09-20T04:13:40.486Z,9.303307
2022-09-20T04:14:40.583Z,9.303232
2022-09-20T04:15:40.859Z,9.303099
2022-09-20T04:16:40.534Z,9.302883
2022-09-20T04:17:40.443Z,9.303348
2022-09-20T04:18:40.548Z,9.304177
2022-09-20T04:19:40.389Z,9.304344
2022-09-20T04:20:40.526Z,9.304688
2022-09-20T04:21:40.467Z,9.304442
2022-09-20T04:22:40.345Z,9.304792
2022-09-20T04:23:40.462Z,9.303025
2022-09-20T04:24:40.371Z,9.303014
2022-09-20T04:25:43.798Z,9.303039
2022-09-20T04:26:41.440Z,9.302976
2022-09-20T04:27:40.341Z,9.303222
2022-09-20T04:28:40.425Z,9.303214
2022-09-20T05:04:09.897Z,9.302966
2022-09-20T05:05:09.588Z,9.302793
2022-09-20T05:06:09.640Z,9.302718
2022-09-20T05:07:09.531Z,9.302928
2022-09-20T05:08:09.525Z,9.302989
2022-09-20T05:09:09.734Z,9.302986
2022-09-20T05:10:09.497Z,9.302996
2022-09-20T05:11:09.570Z,9.303039
2022-09-20T05:12:09.539Z,9.303008
2022-09-20T05:13:09.491Z,9.302995
2022-09-20T05:14:09.445Z,9.303150
2022-09-20T05:15:09.589Z,9.302979
2022-09-20T05:26:18.422Z,9.303041
2022-09-20T05:27:44.975Z,9.303131
2022-09-20T05:36:16.646Z,9.303952
2022-09-20T05:37:16.525Z,9.303273
2022-09-20T05:38:16.211Z,9.303129
2022-09-20T05:57:32.284Z,9.303004
2022-09-20T05:58:32.272Z,9.302980
2022-09-20T06:17:46.966Z,9.303149
2022-09-20T06:18:46.813Z,9.303145
2022-09-20T06:19:46.650Z,9.303140
2022-09-20T06:20:46.639Z,9.303062
2022-09-20T06:21:46.670Z,9.303024
2022-09-20T06:22:46.652Z,9.303076
2022-09-20T06:57:40.965Z,9.303056
2022-09-20T06:58:40.676Z,9.303038
2022-09-20T06:59:40.631Z,9.303041
2022-09-20T07:00:40.775Z,9.303035
2022-09-20T07:01:40.713Z,9.303117
2022-09-20T07:02:40.578Z,9.303032
2022-09-20T07:03:40.590Z,9.303125
2022-09-20T07:04:40.603Z,9.303064
2022-09-20T07:05:40.803Z,9.303101
2022-09-20T07:06:40.560Z,9.303019
2022-09-20T07:07:40.594Z,9.302983
2022-09-20T07:08:40.559Z,9.302957
2022-09-20T07:09:40.542Z,9.302885
2022-09-20T07:10:40.676Z,9.302915
2022-09-20T07:11:40.575Z,9.302967
2022-09-20T07:12:40.478Z,9.303034
2022-09-20T07:13:40.526Z,9.303003
2022-09-20T07:14:40.485Z,9.302982
2022-09-20T07:15:40.476Z,9.302835
2022-09-20T07:16:40.624Z,9.302913
2022-09-20T07:17:40.482Z,9.303055
2022-09-20T07:18:40.472Z,9.303056
2022-09-20T07:19:40.421Z,9.303000
2022-09-20T07:20:40.433Z,9.303016
2022-09-20T07:21:40.437Z,9.303029
2022-09-20T07:22:40.404Z,9.303110
2022-09-20T07:23:41.412Z,9.303009
2022-09-20T07:24:40.382Z,9.303032
2022-09-20T07:25:40.433Z,9.303043
2022-09-20T07:26:40.397Z,9.303030
2022-09-20T07:27:40.363Z,9.303041
2022-09-20T07:28:40.318Z,9.303070
2022-09-20T07:29:40.372Z,9.303046
2022-09-20T07:30:40.389Z,9.302906
2022-09-20T07:40:57.449Z,9.303110
2022-09-20T07:41:57.936Z,9.303395
2022-09-20T07:42:57.357Z,9.303217
2022-09-20T07:43:57.380Z,9.303239
2022-09-20T07:44:57.358Z,9.303013
2022-09-20T07:45:57.374Z,9.303005
2022-09-20T07:46:57.275Z,9.302768
2022-09-20T07:47:57.290Z,9.303034
2022-09-20T07:48:57.321Z,9.303159
2022-09-20T07:49:57.306Z,9.303106
2022-09-20T07:50:57.322Z,9.302984
2022-09-20T07:51:57.271Z,9.303160
2022-09-20T07:52:57.287Z,9.302910
2022-09-20T07:53:57.236Z,9.303016
2022-09-20T07:54:57.262Z,9.303017
2022-09-20T07:55:57.242Z,9.302965
2022-09-20T07:56:57.229Z,9.303062
2022-09-20T07:57:57.199Z,9.303007
2022-09-20T07:58:57.257Z,9.302846
2022-09-20T07:59:58.191Z,9.303088
2022-09-20T08:00:57.249Z,9.303039
2022-09-20T08:01:57.243Z,9.303092
2022-09-20T08:02:57.161Z,9.303117
2022-09-20T08:03:57.160Z,9.303114
2022-09-20T08:04:57.140Z,9.302983
2022-09-20T08:05:57.158Z,9.303048
2022-09-20T08:06:57.207Z,9.302926
2022-09-20T08:07:57.104Z,9.303018
2022-09-20T08:08:57.123Z,9.303015
2022-09-20T08:09:57.166Z,9.302999
2022-09-20T08:10:57.099Z,9.302975
2022-09-20T08:11:57.455Z,9.303060
2022-09-20T08:14:07.782Z,9.302982
2022-09-20T08:14:59.109Z,9.303006
2022-09-20T08:15:57.025Z,9.303018
2022-09-20T08:16:57.154Z,9.303084
2022-09-20T08:17:57.011Z,9.303038
2022-09-20T08:18:58.771Z,9.303084
2022-09-20T08:19:57.022Z,9.303000
2022-09-20T08:20:56.978Z,9.302960
2022-09-20T08:21:57.038Z,9.302971
2022-09-20T08:23:22.171Z,9.302995
2022-09-20T08:23:58.981Z,9.303070
2022-09-20T08:24:56.982Z,9.303107
2022-09-20T08:25:56.904Z,9.303234
2022-09-20T08:26:56.972Z,9.303082
2022-09-20T08:27:56.906Z,9.303135
2022-09-20T08:28:56.937Z,9.303173
2022-09-20T08:29:56.903Z,9.303007
2022-09-20T08:30:56.909Z,9.303038
2022-09-20T08:31:56.982Z,9.303021
2022-09-20T08:32:56.850Z,9.303031
2022-09-20T08:33:56.920Z,9.303100
2022-09-20T08:34:56.823Z,9.302874
2022-09-20T08:35:57.663Z,9.302956
2022-09-20T08:36:57.908Z,9.302919
2022-09-20T08:37:56.985Z,9.303073
2022-09-20T08:39:59.320Z,9.303087
2022-09-20T08:40:56.797Z,9.303034
2022-09-20T08:41:56.842Z,9.302976
2022-09-20T08:42:56.753Z,9.303118
2022-09-20T08:43:56.816Z,9.303069
2022-09-20T08:44:58.174Z,9.303074
2022-09-20T08:45:57.807Z,9.303063
2022-09-20T08:46:56.796Z,9.303082
2022-09-20T08:47:58.809Z,9.303078
2022-09-20T08:48:57.734Z,9.303070
2022-09-20T08:49:57.284Z,9.303089
2022-09-20T08:50:57.695Z,9.303137
2022-09-20T08:51:56.716Z,9.303043
2022-09-20T08:53:00.112Z,9.302972
2022-09-20T08:53:57.682Z,9.302945
2022-09-20T08:54:56.637Z,9.303022
2022-09-20T08:55:56.660Z,9.303117
2022-09-20T08:56:56.660Z,9.302932
2022-09-20T08:57:56.623Z,9.302979
2022-09-20T08:58:56.610Z,9.303064
2022-09-20T08:59:56.596Z,9.303162
2022-09-20T09:00:56.641Z,9.303181
2022-09-20T09:01:56.674Z,9.303031
2022-09-20T09:02:56.561Z,9.303079
2022-09-20T09:03:56.545Z,9.303083
2022-09-20T09:04:56.497Z,9.303031
2022-09-20T09:05:56.484Z,9.303079
2022-09-20T09:06:56.549Z,9.303023
2022-09-20T09:07:56.509Z,9.302917
2022-09-20T09:08:56.474Z,9.303000
2022-09-20T09:09:56.486Z,9.302970
2022-09-20T09:10:56.417Z,9.302906
2022-09-20T09:11:56.453Z,9.302909
2022-09-20T09:12:56.533Z,9.303027
2022-09-20T09:13:56.536Z,9.302945
2022-09-20T09:14:56.412Z,9.302980
2022-09-20T09:15:56.428Z,9.303059
2022-09-20T09:16:56.484Z,9.302972
2022-09-20T09:17:56.361Z,9.303083
2022-09-20T09:18:56.381Z,9.302767
2022-09-20T09:19:56.390Z,9.302926
2022-09-20T09:20:56.393Z,9.303205
2022-09-20T09:21:56.354Z,9.303071
2022-09-20T09:22:56.337Z,9.302906
2022-09-20T09:23:56.356Z,9.303163
2022-09-20T09:24:56.319Z,9.303001
2022-09-20T09:25:56.307Z,9.303082
2022-09-20T09:26:56.354Z,9.302937
2022-09-20T09:27:56.334Z,9.302753
2022-09-20T09:28:56.301Z,9.303070
2022-09-20T09:29:56.305Z,9.303151
2022-09-20T09:30:56.284Z,9.302981
2022-09-20T09:31:56.351Z,9.303060
2022-09-20T09:32:56.295Z,9.302982
2022-09-20T09:33:57.257Z,9.302986
2022-09-20T09:34:56.231Z,9.302954
2022-09-20T09:35:56.177Z,9.302802
2022-09-20T09:36:56.319Z,9.302847
2022-09-20T09:37:56.214Z,9.302965
2022-09-20T09:38:56.187Z,9.303062
2022-09-20T09:39:56.152Z,9.302975
2022-09-20T09:40:56.158Z,9.302932
2022-09-20T09:41:56.187Z,9.303023
2022-09-20T09:42:56.174Z,9.303115
2022-09-20T09:43:56.206Z,9.302990
2022-09-20T09:44:56.155Z,9.303007
2022-09-20T09:45:56.135Z,9.302940
2022-09-20T09:46:56.117Z,9.303056
2022-09-20T09:47:56.093Z,9.303081
2022-09-20T09:48:56.129Z,9.303002
2022-09-20T09:50:00.172Z,9.302992
2022-09-20T09:50:58.035Z,9.303063
2022-09-20T09:51:56.107Z,9.303052
2022-09-20T09:52:56.055Z,9.303084
2022-09-20T09:53:56.017Z,9.303084
2022-09-20T09:54:55.991Z,9.303054
2022-09-20T09:55:56.007Z,9.303085
2022-09-20T09:56:56.015Z,9.302993
2022-09-20T09:57:56.025Z,9.302939
2022-09-20T09:58:55.974Z,9.303020
2022-09-20T09:59:55.964Z,9.303069
2022-09-20T10:00:55.984Z,9.302977
2022-09-20T10:01:56.098Z,9.303203
2022-09-20T10:02:55.963Z,9.303075
2022-09-20T10:03:55.920Z,9.303028
2022-09-20T10:04:55.891Z,9.303048
2022-09-20T10:05:55.943Z,9.303139
2022-09-20T10:06:56.023Z,9.303014
2022-09-20T10:07:55.894Z,9.302962
2022-09-20T10:08:55.948Z,9.302764
2022-09-20T10:09:55.898Z,9.303137
2022-09-20T10:10:55.856Z,9.303118
2022-09-20T10:11:55.902Z,9.302925
2022-09-20T10:12:55.834Z,9.302922
2022-09-20T10:13:55.989Z,9.302896
2022-09-20T10:14:55.873Z,9.302915
2022-09-20T10:15:55.811Z,9.302918
2022-09-20T10:16:55.913Z,9.302896
2022-09-20T10:17:55.761Z,9.303041
2022-09-20T10:18:55.801Z,9.303028
2022-09-20T10:19:55.763Z,9.303032
2022-09-20T10:20:55.817Z,9.303102
2022-09-20T10:21:55.744Z,9.302939
2022-09-20T10:23:30.092Z,9.302940
2022-09-20T10:24:05.166Z,9.303088
2022-09-20T10:24:57.737Z,9.303158
2022-09-20T10:25:55.717Z,9.302932
2022-09-20T10:26:55.734Z,9.302961
2022-09-20T10:27:55.718Z,9.303047
2022-09-20T10:28:55.732Z,9.303097
2022-09-20T10:29:55.692Z,9.302997
2022-09-20T10:30:55.692Z,9.303012
2022-09-20T10:31:55.645Z,9.303011
2022-09-20T10:32:55.702Z,9.302989
2022-09-20T10:33:55.652Z,9.303008
2022-09-20T10:34:55.640Z,9.302939
2022-09-20T10:35:55.638Z,9.302930
2022-09-20T10:36:55.657Z,9.303053
2022-09-20T10:37:55.580Z,9.303038
2022-09-20T10:38:55.584Z,9.303013
2022-09-20T10:39:55.563Z,9.303089
2022-09-20T10:40:56.558Z,9.303128
2022-09-20T10:41:55.548Z,9.303152
2022-09-20T10:42:55.543Z,9.303079
2022-09-20T10:43:55.569Z,9.303059
2022-09-20T10:44:55.522Z,9.303054
2022-09-20T10:46:57.582Z,9.303060
2022-09-20T10:47:55.461Z,9.303131
2022-09-20T10:48:55.480Z,9.303023
2022-09-20T10:49:55.463Z,9.302963
2022-09-20T10:50:55.455Z,9.302925
2022-09-20T10:51:55.459Z,9.303036
2022-09-20T10:52:55.470Z,9.303074
2022-09-20T10:53:55.428Z,9.303063
2022-09-20T10:54:55.434Z,9.303116
2022-09-20T10:55:55.377Z,9.302958
2022-09-20T10:56:56.424Z,9.303130
2022-09-20T10:57:55.464Z,9.303144
2022-09-20T10:58:55.405Z,9.303084
2022-09-20T10:59:55.341Z,9.303135
2022-09-20T11:00:55.349Z,9.303152
2022-09-20T11:01:55.414Z,9.303035
2022-09-20T11:02:55.416Z,9.303052
2022-09-20T11:03:55.331Z,9.303051
2022-09-20T11:04:55.320Z,9.303055
2022-09-20T11:05:55.291Z,9.302987
2022-09-20T11:06:55.334Z,9.303047
2022-09-20T11:07:56.291Z,9.303100
2022-09-20T11:08:55.281Z,9.303096
2022-09-20T11:09:55.256Z,9.303084
2022-09-20T11:10:55.281Z,9.303176
2022-09-20T11:11:55.247Z,9.303071
2022-09-20T11:12:55.261Z,9.303082
2022-09-20T11:13:55.253Z,9.303118
2022-09-20T11:14:55.219Z,9.303170
2022-09-20T11:15:55.211Z,9.303200
2022-09-20T11:16:55.251Z,9.303118
2022-09-20T11:17:55.226Z,9.303117
2022-09-20T11:18:55.236Z,9.302916
2022-09-20T11:19:55.156Z,9.302978
2022-09-20T11:20:55.142Z,9.303075
2022-09-20T11:21:55.142Z,9.303036
2022-09-20T11:22:55.091Z,9.303124
2022-09-20T11:23:55.162Z,9.303212
2022-09-20T11:24:55.189Z,9.303201
2022-09-20T11:25:55.087Z,9.303178
2022-09-20T11:26:55.159Z,9.303156
2022-09-20T11:27:55.095Z,9.303134
2022-09-20T11:28:55.050Z,9.303186
2022-09-20T11:29:55.052Z,9.303069
2022-09-20T11:30:55.091Z,9.303034
2022-09-20T11:31:55.136Z,9.303091
2022-09-20T11:32:55.030Z,9.302970
2022-09-20T11:33:55.039Z,9.303092
2022-09-20T11:34:55.015Z,9.302993
2022-09-20T11:35:55.042Z,9.303024
2022-09-20T11:36:55.118Z,9.303066
2022-09-20T11:37:55.009Z,9.303036
2022-09-20T11:38:54.938Z,9.302813
2022-09-20T11:39:55.073Z,9.303032
2022-09-20T11:40:55.000Z,9.303073
2022-09-20T11:41:54.959Z,9.303135
2022-09-20T11:42:54.912Z,9.303215
2022-09-20T11:43:54.944Z,9.303140
2022-09-20T11:44:54.913Z,9.303106
2022-09-20T11:45:54.921Z,9.303077
2022-09-20T11:46:54.905Z,9.303021
2022-09-20T11:47:55.858Z,9.303008
2022-09-20T11:48:55.890Z,9.303114
2022-09-20T11:49:54.906Z,9.303040
2022-09-20T11:50:54.898Z,9.303124
2022-09-20T11:51:54.840Z,9.303122
2022-09-20T11:52:54.840Z,9.303278
2022-09-20T11:53:54.794Z,9.303282
2022-09-20T11:54:54.851Z,9.303167
2022-09-20T11:55:54.808Z,9.303041
2022-09-20T11:56:54.790Z,9.302998
2022-09-20T11:57:54.808Z,9.302997
2022-09-20T11:58:54.826Z,9.303014
2022-09-20T11:59:54.804Z,9.303001
2022-09-20T12:00:54.781Z,9.303048
2022-09-20T12:01:54.862Z,9.303027
2022-09-20T12:02:54.841Z,9.303001
2022-09-20T12:04:14.168Z,9.303030
2022-09-20T12:04:56.718Z,9.302991
2022-09-20T12:05:54.719Z,9.303086
2022-09-20T12:06:54.734Z,9.303032
2022-09-20T12:07:54.666Z,9.303074
2022-09-20T12:08:54.683Z,9.303144
2022-09-20T12:09:54.659Z,9.303069
2022-09-20T12:10:54.663Z,9.303001
2022-09-20T12:11:54.657Z,9.302974
2022-09-20T12:12:54.659Z,9.303035
2022-09-20T12:13:54.668Z,9.303089
2022-09-20T12:14:54.629Z,9.303061
2022-09-20T12:15:54.599Z,9.303097
2022-09-20T12:16:54.660Z,9.303074
2022-09-20T12:17:54.544Z,9.303010
2022-09-20T12:18:54.632Z,9.303151
2022-09-20T12:19:54.574Z,9.302989
2022-09-20T12:20:54.542Z,9.302954
2022-09-20T12:21:54.542Z,9.303007
2022-09-20T12:22:54.538Z,9.303015
2022-09-20T12:23:54.514Z,9.302910
2022-09-20T12:24:54.478Z,9.303054
2022-09-20T12:25:54.508Z,9.302993
2022-09-20T12:26:54.555Z,9.303012
2022-09-20T12:27:54.589Z,9.303142
2022-09-20T12:28:54.460Z,9.303096
2022-09-20T12:29:54.459Z,9.303057
2022-09-20T12:30:54.456Z,9.303052
2022-09-20T12:31:54.481Z,9.303135
2022-09-20T12:32:54.437Z,9.303125
2022-09-20T12:33:54.421Z,9.303020
2022-09-20T12:34:54.398Z,9.303011
2022-09-20T12:35:54.426Z,9.303061
2022-09-20T12:36:54.395Z,9.303075
2022-09-20T12:37:54.371Z,9.303082
2022-09-20T12:38:54.374Z,9.303050
2022-09-20T12:39:54.393Z,9.303063
2022-09-20T12:40:54.348Z,9.303106
2022-09-20T12:41:54.375Z,9.303080
2022-09-20T12:42:54.350Z,9.303117
2022-09-20T12:43:54.401Z,9.303123
2022-09-20T12:44:54.298Z,9.303122
2022-09-20T12:45:54.323Z,9.303007
2022-09-20T12:46:54.307Z,9.303082
2022-09-20T12:47:54.405Z,9.302969
2022-09-20T12:48:54.318Z,9.302995
2022-09-20T12:49:54.256Z,9.303059
2022-09-20T12:50:54.251Z,9.303096
2022-09-20T12:51:54.232Z,9.303109
2022-09-20T12:52:54.282Z,9.303039
2022-09-20T12:53:54.219Z,9.303062
2022-09-20T12:54:54.603Z,9.303152
2022-09-20T12:55:55.266Z,9.303128
2022-09-20T12:56:54.214Z,9.303113
2022-09-20T12:57:54.193Z,9.303043
2022-09-20T12:58:54.201Z,9.303115
2022-09-20T12:59:54.160Z,9.303164
2022-09-20T13:00:54.180Z,9.303102
2022-09-20T13:01:54.233Z,9.303019
2022-09-20T13:02:54.146Z,9.303114
2022-09-20T13:03:54.119Z,9.303184
2022-09-20T13:04:54.236Z,9.303159
2022-09-20T13:05:54.089Z,9.303041
2022-09-20T13:06:54.147Z,9.303143
2022-09-20T13:07:54.121Z,9.303141
2022-09-20T13:08:54.040Z,9.303131
2022-09-20T13:09:54.070Z,9.303070
2022-09-20T13:10:54.058Z,9.303110
2022-09-20T13:11:54.074Z,9.303152
2022-09-20T13:12:54.740Z,9.303154
2022-09-20T13:13:55.039Z,9.303132
2022-09-20T13:14:53.985Z,9.303183
2022-09-20T13:15:54.096Z,9.303105
2022-09-20T13:16:54.858Z,9.303127
2022-09-20T13:17:56.579Z,9.303139
2022-09-20T13:18:53.944Z,9.303066
2022-09-20T13:19:56.622Z,9.303172
2022-09-20T13:20:55.255Z,9.303138
2022-09-20T13:21:55.740Z,9.303087
2022-09-20T13:22:59.572Z,9.303107
2022-09-20T13:23:55.947Z,9.303049
2022-09-20T13:24:54.487Z,9.303069
2022-09-20T13:25:55.198Z,9.303097
2022-09-20T13:26:55.683Z,9.303080
2022-09-20T13:27:56.607Z,9.302987
2022-09-20T13:28:55.943Z,9.303174
2022-09-20T13:29:57.168Z,9.303136
2022-09-20T13:31:06.179Z,9.303060
2022-09-20T13:31:57.774Z,9.303048
2022-09-20T13:32:54.059Z,9.303232
2022-09-20T13:33:54.043Z,9.303200
2022-09-20T13:36:14.606Z,9.303005
2022-09-20T13:36:16.440Z,9.303005
2022-09-20T13:37:16.324Z,9.302983
2022-09-20T13:38:16.158Z,9.303036
2022-09-20T13:39:17.037Z,9.303066
2022-09-20T13:40:19.284Z,9.303033
2022-09-20T13:41:16.591Z,9.303074
2022-09-20T13:42:17.680Z,9.303095
2022-09-20T13:43:24.242Z,9.303026
2022-09-20T13:44:18.192Z,9.303040
2022-09-20T13:45:16.579Z,9.302997
2022-09-20T13:47:46.343Z,9.303001
2022-09-20T13:47:48.749Z,9.303001
2022-09-20T13:50:14.605Z,9.303005
2022-09-20T13:51:37.641Z,9.303005
2022-09-20T13:51:39.793Z,9.303005
2022-09-20T13:52:39.482Z,9.302956
2022-09-20T13:53:41.835Z,9.302997
2022-09-20T13:54:40.312Z,9.303045
2022-09-20T13:55:39.285Z,9.303026
2022-09-20T13:56:39.289Z,9.303115
2022-09-20T13:57:39.802Z,9.303108
2022-09-20T13:58:39.646Z,9.303096
2022-09-20T13:59:39.620Z,9.303062
2022-09-20T14:00:39.529Z,9.303082
2022-09-20T14:01:39.288Z,9.303100
2022-09-20T14:02:39.822Z,9.303085
2022-09-20T14:03:40.147Z,9.303101
2022-09-20T14:04:39.163Z,9.303061
2022-09-20T14:05:39.492Z,9.303128
2022-09-20T14:06:39.098Z,9.303077
2022-09-20T14:07:39.310Z,9.303075
2022-09-20T14:08:39.145Z,9.303020
2022-09-20T14:09:40.798Z,9.303033
2022-09-20T14:10:39.155Z,9.303043
2022-09-20T14:11:39.147Z,9.303013
2022-09-20T14:12:39.139Z,9.303021
2022-09-20T14:13:39.107Z,9.303024
2022-09-20T14:14:39.639Z,9.302929
2022-09-20T14:15:39.083Z,9.302951
2022-09-20T14:16:39.076Z,9.303005
2022-09-20T14:17:40.685Z,9.303018
2022-09-20T14:18:39.262Z,9.303031
2022-09-20T14:19:39.754Z,9.303028
2022-09-20T14:20:39.161Z,9.302995
2022-09-20T14:21:39.566Z,9.303014
2022-09-20T14:22:41.341Z,9.303016
2022-09-20T14:23:38.984Z,9.303055
2022-09-20T14:24:39.100Z,9.303004
2022-09-20T14:25:39.050Z,9.302928
2022-09-20T14:26:38.980Z,9.302987
2022-09-20T14:27:39.293Z,9.303044
2022-09-20T14:28:38.882Z,9.303102
2022-09-20T14:29:41.096Z,9.303042
2022-09-20T14:30:39.495Z,9.302975
2022-09-20T14:31:39.102Z,9.302889
2022-09-20T14:32:39.028Z,9.302874
2022-09-20T14:33:38.972Z,9.302933
2022-09-20T14:34:44.214Z,9.303017
2022-09-20T14:35:38.890Z,9.303068
2022-09-20T14:36:39.211Z,9.302957
2022-09-20T14:37:38.917Z,9.302906
2022-09-20T14:38:38.765Z,9.303059
2022-09-20T14:39:42.983Z,9.302936
2022-09-20T14:40:40.071Z,9.303025
2022-09-20T14:41:39.083Z,9.303004
2022-09-20T14:42:38.775Z,9.302999
2022-09-20T14:43:39.076Z,9.302973
2022-09-20T14:44:40.628Z,9.302990
2022-09-20T14:45:39.108Z,9.303000
2022-09-20T14:46:39.111Z,9.303068
2022-09-20T14:47:39.282Z,9.303031
2022-09-20T14:48:38.776Z,9.303034
2022-09-20T14:49:38.804Z,9.303014
2022-09-20T14:50:39.369Z,9.303065
2022-09-20T14:51:38.974Z,9.303029
2022-09-20T14:52:38.702Z,9.303039
2022-09-20T14:53:38.677Z,9.302999
2022-09-20T14:54:38.905Z,9.303010
2022-09-20T14:55:38.640Z,9.302985
2022-09-20T14:56:38.920Z,9.303134
2022-09-20T14:57:38.588Z,9.303079
2022-09-20T14:58:38.631Z,9.302927
2022-09-20T14:59:38.650Z,9.302947
2022-09-20T15:00:38.668Z,9.303032
2022-09-20T15:01:38.820Z,9.303012
2022-09-20T15:02:38.627Z,9.303010
2022-09-20T15:03:39.576Z,9.302994
2022-09-20T15:04:38.543Z,9.303066
2022-09-20T15:05:38.492Z,9.303058
2022-09-20T15:06:38.542Z,9.303010
2022-09-20T15:07:38.574Z,9.302979
2022-09-20T15:08:40.786Z,9.303118
2022-09-20T15:09:39.411Z,9.303176
2022-09-20T15:10:38.448Z,9.302987
2022-09-20T15:11:38.434Z,9.302906
2022-09-20T15:12:38.390Z,9.302927
2022-09-20T15:13:38.438Z,9.302930
2022-09-20T15:14:38.396Z,9.302983
2022-09-20T15:15:38.393Z,9.303003
2022-09-20T15:16:38.420Z,9.303021
2022-09-20T15:17:38.378Z,9.303034
2022-09-20T15:18:38.384Z,9.303066
2022-09-20T15:19:38.330Z,9.303149
2022-09-20T15:20:38.377Z,9.303082
2022-09-20T15:21:38.358Z,9.303022
2022-09-20T15:22:38.298Z,9.302990
2022-09-20T15:23:38.315Z,9.302998
2022-09-20T15:24:38.323Z,9.303034
2022-09-20T15:25:38.305Z,9.303114
2022-09-20T15:26:38.295Z,9.303097
2022-09-20T15:27:38.297Z,9.303090
2022-09-20T15:28:38.266Z,9.303106
2022-09-20T15:29:38.255Z,9.303111
2022-09-20T15:30:38.242Z,9.303050
2022-09-20T15:31:38.347Z,9.303064
2022-09-20T15:32:38.233Z,9.303080
2022-09-20T15:33:38.206Z,9.303053
2022-09-20T15:34:38.205Z,9.303084
2022-09-20T15:35:38.208Z,9.303041
2022-09-20T15:36:38.208Z,9.303039
2022-09-20T15:37:38.164Z,9.302942
2022-09-20T15:38:38.224Z,9.303043
2022-09-20T15:39:38.145Z,9.303011
2022-09-20T15:40:38.243Z,9.303067
2022-09-20T15:41:38.144Z,9.303097
2022-09-20T15:42:38.149Z,9.303061
2022-09-20T15:43:38.125Z,9.303025
2022-09-20T15:44:38.110Z,9.303177
2022-09-20T15:45:38.103Z,9.303116
2022-09-20T15:46:38.081Z,9.303024
2022-09-20T15:47:38.086Z,9.302972
2022-09-20T15:48:38.050Z,9.303024
2022-09-20T15:49:38.067Z,9.303088
2022-09-20T15:50:38.037Z,9.303005
2022-09-20T15:51:38.015Z,9.302969
2022-09-20T15:52:38.008Z,9.303018
2022-09-20T15:53:38.015Z,9.303070
2022-09-20T15:54:37.999Z,9.303032
2022-09-20T15:55:38.018Z,9.303017
2022-09-20T15:56:38.027Z,9.302992
2022-09-20T15:57:37.988Z,9.302971
2022-09-20T15:58:37.980Z,9.303024
2022-09-20T15:59:37.969Z,9.303047
2022-09-20T16:00:37.937Z,9.303043
2022-09-20T16:01:37.970Z,9.303014
2022-09-20T16:02:37.942Z,9.303081
2022-09-20T16:03:37.944Z,9.303075
2022-09-20T16:04:37.943Z,9.303012
2022-09-20T16:05:37.933Z,9.303069
2022-09-20T16:06:37.878Z,9.303119
2022-09-20T16:07:37.893Z,9.303164
2022-09-20T16:08:37.866Z,9.303083
2022-09-20T16:09:37.919Z,9.303040
2022-09-20T16:10:37.865Z,9.303128
2022-09-20T16:11:37.872Z,9.303119
2022-09-20T16:12:37.868Z,9.303084
2022-09-20T16:13:37.895Z,9.303020
2022-09-20T16:14:37.815Z,9.303016
2022-09-20T16:15:37.776Z,9.303057
2022-09-20T16:16:40.575Z,9.303117
2022-09-20T16:17:38.793Z,9.303100
2022-09-20T16:18:37.788Z,9.303034
2022-09-20T16:19:37.760Z,9.302998
2022-09-20T16:20:37.768Z,9.303055
2022-09-20T16:21:37.744Z,9.303056
2022-09-20T16:22:37.763Z,9.303035
2022-09-20T16:23:37.760Z,9.303045
2022-09-20T16:24:37.714Z,9.303046
2022-09-20T16:25:38.696Z,9.302988
2022-09-20T16:26:37.722Z,9.303113
2022-09-20T16:27:37.715Z,9.303055
2022-09-20T16:28:37.652Z,9.303075
2022-09-20T16:29:37.658Z,9.303072
2022-09-20T16:30:37.636Z,9.303066
2022-09-20T16:31:37.682Z,9.303119
2022-09-20T16:32:37.657Z,9.303057
2022-09-20T16:33:37.615Z,9.303121
2022-09-20T16:34:37.631Z,9.303127
2022-09-20T16:35:37.579Z,9.303197
2022-09-20T16:36:37.632Z,9.303082
2022-09-20T16:37:37.608Z,9.303198
2022-09-20T16:38:37.554Z,9.303154
2022-09-20T16:39:37.612Z,9.303090
2022-09-20T16:40:37.628Z,9.302924
2022-09-20T16:41:37.517Z,9.302997
2022-09-20T16:42:37.558Z,9.302979
2022-09-20T16:43:37.555Z,9.302970
2022-09-20T16:44:37.520Z,9.302972
2022-09-20T16:45:37.569Z,9.303075
2022-09-20T16:46:37.491Z,9.303073
2022-09-20T16:47:37.610Z,9.303042
2022-09-20T16:48:37.485Z,9.303066
2022-09-20T16:49:37.489Z,9.303000
2022-09-20T16:50:37.460Z,9.303061
2022-09-20T16:51:37.468Z,9.303076
2022-09-20T16:52:37.486Z,9.303027
2022-09-20T16:53:37.428Z,9.302986
2022-09-20T16:54:37.420Z,9.303097
2022-09-20T16:55:37.397Z,9.303102
2022-09-20T16:56:37.390Z,9.302984
2022-09-20T16:57:37.408Z,9.302962
2022-09-20T16:58:37.375Z,9.302954
2022-09-20T16:59:37.402Z,9.302711
2022-09-20T17:00:37.426Z,9.303004
2022-09-20T17:01:37.385Z,9.303029
2022-09-20T17:02:37.337Z,9.302938
2022-09-20T17:03:37.337Z,9.303053
2022-09-20T17:04:37.377Z,9.303014
2022-09-20T17:05:37.312Z,9.302955
2022-09-20T17:06:37.297Z,9.303006
2022-09-20T17:07:37.312Z,9.302830
2022-09-20T17:08:37.281Z,9.302914
2022-09-20T17:09:37.289Z,9.302892
2022-09-20T17:10:37.223Z,9.302970
2022-09-20T17:11:37.240Z,9.303069
2022-09-20T17:12:37.259Z,9.302991
2022-09-20T17:13:37.281Z,9.302991
2022-09-20T17:14:37.233Z,9.303009
2022-09-20T17:15:37.211Z,9.303031
2022-09-20T17:16:37.303Z,9.303039
2022-09-20T17:17:37.219Z,9.303057
2022-09-20T17:18:37.175Z,9.303035
2022-09-20T17:19:37.150Z,9.302999
2022-09-20T17:20:37.267Z,9.303064
2022-09-20T17:21:37.233Z,9.303122
2022-09-20T17:22:37.200Z,9.303018
2022-09-20T17:23:37.838Z,9.302890
2022-09-20T17:24:37.170Z,9.302940
2022-09-20T17:25:37.128Z,9.303042
2022-09-20T17:26:37.203Z,9.303062
2022-09-20T17:27:37.140Z,9.303035
2022-09-20T17:28:37.158Z,9.303031
2022-09-20T17:29:37.178Z,9.303092
2022-09-20T17:30:37.125Z,9.303101
2022-09-20T17:31:37.174Z,9.302997
2022-09-20T17:32:38.315Z,9.303017
2022-09-20T17:33:37.277Z,9.303036
2022-09-20T17:34:37.213Z,9.302993
2022-09-20T17:35:37.059Z,9.303005
2022-09-20T17:36:37.700Z,9.302965
2022-09-20T17:37:37.023Z,9.303016
2022-09-20T17:38:37.045Z,9.302977
2022-09-20T17:39:37.073Z,9.303091
2022-09-20T17:40:37.082Z,9.302936
2022-09-20T17:41:37.039Z,9.302930
2022-09-20T17:42:36.992Z,9.302974
2022-09-20T17:43:36.955Z,9.303032
2022-09-20T17:44:37.016Z,9.303010
2022-09-20T17:45:41.517Z,9.303033
2022-09-20T17:46:36.976Z,9.302917
2022-09-20T17:47:37.710Z,9.303056
2022-09-20T17:48:36.926Z,9.303092
2022-09-20T17:49:37.041Z,9.303046
2022-09-20T17:50:36.965Z,9.303036
2022-09-20T17:51:36.938Z,9.302923
2022-09-20T17:52:36.917Z,9.302941
2022-09-20T17:53:36.890Z,9.303028
2022-09-20T17:54:36.930Z,9.303110
2022-09-20T17:55:36.939Z,9.303148
2022-09-20T17:56:37.555Z,9.303231
2022-09-20T17:57:36.850Z,9.303078
2022-09-20T17:58:36.919Z,9.303034
2022-09-20T17:59:36.782Z,9.303148
2022-09-20T18:00:36.896Z,9.303082
2022-09-20T18:01:36.820Z,9.303024
2022-09-20T18:02:36.818Z,9.303051
2022-09-20T18:03:36.838Z,9.303030
2022-09-20T18:04:36.785Z,9.302994
2022-09-20T18:05:36.737Z,9.303094